• Join FlightAware (Why Join?)
  • Login
  • US Flag 
09:37PM EST


 

Airport Tracker/Info


-or-


 

Live Flight TrackerFlight Track Log ✈ AAL334 ✈ 25-Apr-2012 ✈ KDFW - KBNA

Flight Track Log - Related Links

Times and Time Zones

All times are in EDT time to prevent confusion due to time zone crossing. See the AAL334 flight status page for this flight to view local times or setup timezone preferences in your user account.

Time Position Orientation Groundspeed Altitude Reporting Facility
EDT Latitude Longitude Course Direction KTS MPH feet Rate Location/Type
12:16PM 32.7814 -96.9883 109° East 270 311 5,100  Level FAA TRACON SMA TRACON (SMA)
12:17PM 32.7639 -96.9275 87° East 292 336 7,000 2,580 Climbing FAA TRACON SMA TRACON (SMA)
12:18PM 32.7664 -96.8653 76° East 308 354 8,600 2,280 Climbing FAA TRACON SMA TRACON (SMA)
12:18PM 32.7817 -96.7939 64° Northeast 327 376 10,100 2,760 Climbing FAA TRACON SMA TRACON (SMA)
12:19PM 32.8097 -96.7264 63° Northeast 330 380 12,400 3,480 Climbing FAA TRACON SMA TRACON (SMA)
12:19PM 32.8228 -96.6956 64° Northeast 332 382 13,600 4,020 Climbing FAA TRACON SMA TRACON (SMA)
12:20PM 32.8389 -96.6569 63° Northeast 338 389 15,100 3,780 Climbing FAA TRACON SMA TRACON (SMA)
12:20PM 32.8519 -96.6258 63° Northeast 340 391 16,200 2,580 Climbing FAA TRACON SMA TRACON (SMA)
12:20PM 32.8656 -96.5936 63° Northeast 349 402 16,900 1,200 Climbing FAA TRACON SMA TRACON (SMA)
12:21PM 32.8839 -96.5503 64° Northeast 372 428 17,000 1,320 Climbing FAA TRACON SMA TRACON (SMA)
12:21PM 32.8994 -96.5122 64° Northeast 399 459 17,800 3,060 Climbing FAA TRACON SMA TRACON (SMA)
12:21PM 32.9150 -96.4744 63° Northeast 413 475 19,000 3,600 Climbing FAA TRACON SMA TRACON (SMA)
12:22PM 32.9356 -96.4261 65° Northeast 421 484 20,100 3,300 Climbing FAA TRACON SMA TRACON (SMA)
12:22PM 32.9511 -96.3872 66° East 424 488 21,200 3,120 Climbing FAA TRACON SMA TRACON (SMA)
12:22PM 32.9664 -96.3472 71° East 428 493 22,200 2,580 Climbing FAA TRACON SMA TRACON (SMA)
12:23PM 32.9783 -96.3056 78° East 432 497 22,900 2,040 Climbing FAA TRACON SMA TRACON (SMA)
12:23PM 32.9883 -96.2514 83° East 437 503 23,600 2,340 Climbing FAA TRACON SMA TRACON (SMA)
12:24PM 33.0086 -96.0540 331° Northwest 465 535 26,800 2,220 Climbing FlightAware ADS-B
12:24PM 33.0164 -96.0592 78° East 459 528 26,600 1,140 Descending FAA TRACON SMA TRACON (SMA)
12:25PM 33.0244 -96.0128 80° East 464 534 27,200 2,040 Climbing FAA TRACON SMA TRACON (SMA)
12:25PM 33.0331 -95.9533 85° East 470 541 28,000 1,920 Climbing FAA TRACON SMA TRACON (SMA)
12:26PM 33.0460 -95.7777 81° East 492 566 30,000 2,100 Climbing FlightAware ADS-B
12:27PM 33.0586 -95.6838 80° East 489 563 31,500 2,520 Climbing FlightAware ADS-B
12:28PM 33.0764 -95.5644 74° East 474 545 33,500 2,520 Climbing FlightAware ADS-B
12:28PM 33.0828 -95.5381 72° East 468 539 33,900 1,740 Climbing FlightAware ADS-B
12:29PM 33.1161 -95.4169 70° East 465 535 35,600 1,500 Climbing Fort Worth Center
12:30PM 33.1597 -95.2744 70° East 460 529 37,000 660 Climbing Fort Worth Center
12:31PM 33.2031 -95.1294 70° East 455 524 37,000 60 Level Fort Worth Center
12:32PM 33.2461 -94.9842 70° East 455 524 37,200 840 Climbing Fort Worth Center
12:33PM 33.2894 -94.8439 70° East 455 524 38,700 900 Climbing Fort Worth Center
12:34PM 33.3342 -94.6983 71° East 450 518 39,000 120 Climbing Fort Worth Center
12:35PM 33.3750 -94.5528 71° East 450 518 39,000  Level Fort Worth Center